Time;durP1;ratioP1;P1;durP2;ratioP2;P2;SDS_P1;SDS_P2;PMS_P1;PMS_P2;Temp;Humidity;BMP_temperature;BMP_pressure;BME280_temperature;BME280_humidity;BME280_pressure;Samples;Min_cycle;Max_cycle;Signal;HPM_P1;HPM_P2
2022/01/16 00:00:40;;;;;;;0.40;0.40;;;;;;;22.89;9.90;99891.56;5034788;28;20099;-73
2022/01/16 00:05:53;;;;;;;0.30;0.30;;;;;;;22.86;10.14;99897.56;5034634;28;20032;-73
2022/01/16 00:08:18;;;;;;;0.50;0.50;;;;;;;22.94;9.90;99891.53;5034636;28;20025;-72
2022/01/16 00:10:44;;;;;;;0.30;0.30;;;;;;;22.88;9.88;99895.34;5033273;28;20075;-73
2022/01/16 00:13:09;;;;;;;0.50;0.43;;;;;;;23.01;9.87;99900.19;5034695;28;20036;-73
2022/01/16 00:15:35;;;;;;;0.45;0.40;;;;;;;22.93;9.96;99900.78;5034154;28;20423;-73
2022/01/16 00:18:10;;;;;;;0.60;0.40;;;;;;;22.95;10.07;99904.03;5034552;28;20026;-73
2022/01/16 00:20:35;;;;;;;0.32;0.30;;;;;;;22.90;10.19;99895.88;5034556;28;20077;-73
2022/01/16 00:23:04;;;;;;;0.40;0.40;;;;;;;22.95;10.09;99873.25;5034437;28;20460;-72
2022/01/16 00:25:29;;;;;;;0.40;0.40;;;;;;;22.90;10.13;99865.13;5034119;28;20444;-73
2022/01/16 00:27:55;;;;;;;0.30;0.30;;;;;;;22.91;10.19;99855.84;5034445;28;20076;-73
2022/01/16 00:30:20;;;;;;;0.50;0.40;;;;;;;22.88;10.06;99849.03;5034477;28;20032;-73
2022/01/16 00:32:46;;;;;;;0.40;0.40;;;;;;;22.92;10.27;99833.78;5034093;28;20025;-73
2022/01/16 00:35:11;;;;;;;0.40;0.40;;;;;;;22.92;10.27;99836.50;5033835;28;20025;-73
2022/01/16 00:37:38;;;;;;;0.57;0.55;;;;;;;22.87;10.31;99834.63;5033912;28;20029;-73
2022/01/16 00:40:05;;;;;;;0.55;0.40;;;;;;;22.89;10.40;99842.50;5034184;28;20431;-72
2022/01/16 00:42:30;;;;;;;0.30;0.30;;;;;;;22.94;10.52;99820.69;5033768;28;20033;-73
2022/01/16 00:44:56;;;;;;;0.50;0.40;;;;;;;22.90;10.44;99814.16;5034242;28;20029;-73
2022/01/16 00:47:21;;;;;;;0.38;0.38;;;;;;;22.88;10.47;99813.63;5034025;28;20082;-73
2022/01/16 00:49:46;;;;;;;0.40;0.40;;;;;;;22.89;10.46;99812.53;5033697;28;20367;-73
2022/01/16 00:52:12;;;;;;;0.40;0.40;;;;;;;22.91;10.63;99796.72;5033881;28;20040;-73
2022/01/16 00:54:37;;;;;;;0.50;0.50;;;;;;;22.95;10.53;99805.94;5033899;28;20094;-74
2022/01/16 00:57:03;;;;;;;0.40;0.40;;;;;;;22.84;10.78;99798.97;5033891;28;20368;-73
2022/01/16 00:59:29;;;;;;;0.43;0.40;;;;;;;22.91;10.56;99793.19;5033805;28;20456;-73
2022/01/16 01:01:54;;;;;;;0.20;0.20;;;;;;;23.00;10.69;99784.09;5033797;28;20075;-73
2022/01/16 01:04:20;;;;;;;0.30;0.30;;;;;;;22.90;10.79;99770.56;5033764;28;20022;-73
2022/01/16 01:06:48;;;;;;;0.30;0.30;;;;;;;22.85;10.74;99776.03;5033959;28;20036;-72
2022/01/16 01:09:14;;;;;;;0.30;0.30;;;;;;;22.92;10.81;99764.84;5016500;28;20030;-73
2022/01/16 01:11:42;;;;;;;0.47;0.47;;;;;;;22.96;10.70;99765.91;5033687;28;20036;-73
2022/01/16 01:14:15;;;;;;;0.40;0.40;;;;;;;22.96;10.86;99772.16;5033538;28;20119;-73
2022/01/16 01:16:51;;;;;;;0.35;0.35;;;;;;;22.93;10.93;99756.38;5033331;28;20029;-73
2022/01/16 01:19:28;;;;;;;0.50;0.50;;;;;;;22.87;10.90;99741.19;5033769;28;20037;-72
2022/01/16 01:21:54;;;;;;;0.20;0.20;;;;;;;22.89;10.88;99725.38;5032883;28;20482;-73
2022/01/16 01:24:20;;;;;;;0.43;0.40;;;;;;;22.98;10.71;99715.47;5033153;28;20029;-73
2022/01/16 01:26:53;;;;;;;0.32;0.32;;;;;;;22.87;10.94;99727.56;5033185;28;20033;-73
2022/01/16 01:29:20;;;;;;;0.30;0.30;;;;;;;22.93;10.90;99714.69;5033498;28;20037;-73
2022/01/16 01:31:46;;;;;;;0.40;0.40;;;;;;;22.88;11.17;99715.56;5033484;28;20037;-72
2022/01/16 01:34:11;;;;;;;0.30;0.30;;;;;;;22.87;11.29;99713.94;5033150;28;20456;-72
2022/01/16 01:36:37;;;;;;;0.43;0.43;;;;;;;22.88;11.24;99710.09;5034101;28;20025;-72
2022/01/16 01:39:02;;;;;;;0.45;0.40;;;;;;;22.87;11.47;99700.31;5033415;28;20460;-73
2022/01/16 01:41:29;;;;;;;0.43;0.40;;;;;;;22.91;11.43;99703.28;5033411;28;20464;-73
2022/01/16 01:52:06;;;;;;;0.30;0.30;;;;;;;22.89;11.84;99687.22;5033389;28;20445;-72
2022/01/16 01:54:31;;;;;;;0.30;0.30;;;;;;;22.86;11.76;99674.16;5015670;28;20017;-72
2022/01/16 01:56:58;;;;;;;0.30;0.30;;;;;;;22.91;11.94;99671.38;5015401;28;20037;-73
2022/01/16 01:59:26;;;;;;;0.30;0.30;;;;;;;22.91;11.89;99665.13;5024780;28;20021;-74
2022/01/16 02:01:52;;;;;;;0.25;0.25;;;;;;;22.91;11.93;99660.50;5033188;28;20033;-73
2022/01/16 02:04:17;;;;;;;0.30;0.30;;;;;;;22.93;11.96;99652.84;5033029;28;20471;-72
2022/01/16 02:06:43;;;;;;;0.40;0.40;;;;;;;22.88;12.03;99655.63;5033320;28;20088;-73
2022/01/16 02:09:08;;;;;;;0.50;0.35;;;;;;;22.94;12.14;99648.19;5015395;28;20460;-73
2022/01/16 02:11:34;;;;;;;0.22;0.22;;;;;;;22.98;12.19;99655.50;5032762;28;20036;-74
2022/01/16 02:28:15;;;;;;;0.20;0.20;;;;;;;22.91;12.48;99616.91;4934042;29;20078;-72
2022/01/16 02:35:39;;;;;;;0.22;0.22;;;;;;;22.91;12.56;99619.63;4936964;29;20390;-72
2022/01/16 02:38:06;;;;;;;0.30;0.30;;;;;;;22.87;12.43;99626.75;4937307;29;20032;-74
2022/01/16 02:40:31;;;;;;;0.30;0.30;;;;;;;22.94;12.30;99594.53;4937397;29;20036;-74
2022/01/16 02:42:57;;;;;;;0.40;0.40;;;;;;;22.91;12.70;99608.72;4937341;29;20031;-73
2022/01/16 02:45:33;;;;;;;0.38;0.30;;;;;;;22.88;12.51;99584.78;4936882;29;20118;-73
2022/01/16 02:48:01;;;;;;;0.40;0.40;;;;;;;22.82;12.55;99493.34;4936635;29;20494;-73
2022/01/16 02:50:26;;;;;;;0.30;0.30;;;;;;;22.90;12.54;99500.84;4936680;29;20039;-73
2022/01/16 02:52:52;;;;;;;0.20;0.20;;;;;;;23.04;12.25;99493.59;4977363;28;20096;-72
2022/01/16 02:55:20;;;;;;;0.20;0.20;;;;;;;22.90;12.27;99489.94;5036027;28;20029;-73
2022/01/16 02:57:46;;;;;;;0.20;0.20;;;;;;;22.84;12.36;99486.47;5036325;28;20055;-73
2022/01/16 03:00:12;;;;;;;0.20;0.20;;;;;;;22.90;12.34;99513.66;5035868;28;20022;-73
2022/01/16 03:02:37;;;;;;;0.25;0.25;;;;;;;22.90;12.33;99533.53;5035945;28;20384;-73
2022/01/16 03:05:03;;;;;;;0.25;0.25;;;;;;;22.90;12.13;99536.25;5036162;28;20037;-73
2022/01/16 03:07:29;;;;;;;0.20;0.20;;;;;;;22.88;12.14;99552.09;5036528;28;20052;-74
2022/01/16 03:12:55;;;;;;;0.20;0.20;;;;;;;23.02;12.19;99536.66;5034000;28;20455;-73
2022/01/16 03:15:21;;;;;;;0.20;0.20;;;;;;;22.94;12.13;99531.88;5035635;28;20029;-72
2022/01/16 03:23:13;;;;;;;0.30;0.30;;;;;;;22.92;12.13;99504.13;5035601;28;20039;-73
2022/01/16 03:25:38;;;;;;;0.20;0.20;;;;;;;22.86;11.89;99516.16;5035540;28;20029;-73
2022/01/16 03:28:04;;;;;;;0.20;0.20;;;;;;;22.90;11.95;99516.38;5035941;28;20038;-73
2022/01/16 03:30:29;;;;;;;0.20;0.20;;;;;;;22.84;11.97;99508.28;5036325;28;20033;-73
2022/01/16 03:32:54;;;;;;;0.45;0.20;;;;;;;22.97;11.81;99516.84;5036625;28;20057;-74
2022/01/16 03:35:20;;;;;;;0.30;0.30;;;;;;;22.88;11.82;99508.50;5035811;28;20456;-74
2022/01/16 03:37:45;;;;;;;0.20;0.20;;;;;;;22.86;11.96;99521.59;5036322;28;20033;-73
2022/01/16 03:40:11;;;;;;;0.20;0.20;;;;;;;23.01;11.77;99518.69;5036026;28;20091;-74
2022/01/16 03:42:40;;;;;;;0.20;0.20;;;;;;;22.96;11.83;99524.22;5036153;28;20026;-73
2022/01/16 03:45:06;;;;;;;0.20;0.20;;;;;;;22.87;11.74;99512.34;5036642;28;20064;-73
2022/01/16 03:47:32;;;;;;;0.30;0.22;;;;;;;22.90;11.92;99511.75;5036296;28;20033;-73
2022/01/16 03:49:57;;;;;;;0.30;0.30;;;;;;;22.94;11.60;99506.53;5036306;28;20028;-74
2022/01/16 03:52:22;;;;;;;0.30;0.30;;;;;;;22.95;11.59;99492.59;5036637;28;20070;-73
2022/01/16 03:54:48;;;;;;;0.20;0.20;;;;;;;23.01;11.52;99486.00;5036998;28;20026;-73
2022/01/16 03:57:13;;;;;;;0.30;0.30;;;;;;;22.91;12.01;99474.44;5035095;28;20021;-73
2022/01/16 03:59:39;;;;;;;0.30;0.30;;;;;;;22.89;11.61;99458.38;5034926;28;20467;-73
2022/01/16 04:02:04;;;;;;;0.40;0.30;;;;;;;22.92;11.42;99451.53;5034788;28;20525;-73
2022/01/16 04:04:30;;;;;;;0.30;0.30;;;;;;;22.88;11.54;99454.00;5035007;28;20029;-73
2022/01/16 04:06:55;;;;;;;0.30;0.30;;;;;;;22.83;11.70;99440.47;5034948;28;20064;-73
2022/01/16 04:09:21;;;;;;;0.40;0.30;;;;;;;22.86;11.53;99434.44;5034703;28;20468;-73
2022/01/16 04:11:52;;;;;;;0.40;0.30;;;;;;;22.91;11.40;99442.53;5034437;28;20486;-73
2022/01/16 04:17:07;;;;;;;0.30;0.30;;;;;;;22.87;11.43;99430.63;4954566;29;20417;-72
2022/01/16 04:19:32;;;;;;;0.28;0.28;;;;;;;22.85;11.33;99425.47;4954421;29;20046;-72
2022/01/16 04:21:57;;;;;;;0.22;0.22;;;;;;;22.96;11.27;99417.94;4954192;29;20039;-72
2022/01/16 04:24:23;;;;;;;0.30;0.30;;;;;;;22.86;11.27;99401.75;4954110;29;20058;-73
2022/01/16 04:26:48;;;;;;;0.30;0.30;;;;;;;22.88;11.17;99394.09;4953875;29;20482;-74
2022/01/16 04:29:14;;;;;;;0.52;0.32;;;;;;;22.93;11.10;99379.59;4954176;29;20047;-73
2022/01/16 04:31:39;;;;;;;0.30;0.30;;;;;;;22.99;11.27;99381.94;4953962;29;20034;-73
2022/01/16 04:34:04;;;;;;;0.20;0.20;;;;;;;22.94;11.16;99379.31;4954036;29;20546;-73
2022/01/16 04:36:30;;;;;;;0.30;0.30;;;;;;;22.91;11.09;99376.34;4953924;29;20031;-73
2022/01/16 04:38:56;;;;;;;0.20;0.20;;;;;;;22.85;11.17;99373.72;4953929;29;20152;-74
2022/01/16 04:44:05;;;;;;;0.30;0.30;;;;;;;22.92;11.01;99361.63;4954368;29;20122;-73
2022/01/16 04:46:31;;;;;;;0.30;0.30;;;;;;;22.88;11.13;99367.66;4953390;28;20063;-72
2022/01/16 04:48:57;;;;;;;0.38;0.38;;;;;;;22.90;11.27;99363.84;4953821;29;20049;-73
2022/01/16 04:51:23;;;;;;;0.30;0.30;;;;;;;22.88;11.09;99339.59;4953898;29;20023;-73
2022/01/16 04:53:48;;;;;;;0.30;0.30;;;;;;;22.84;10.92;99338.59;4984030;28;20503;-73
2022/01/16 04:56:14;;;;;;;0.20;0.20;;;;;;;22.92;10.90;99334.38;5033485;28;20021;-73
2022/01/16 04:58:39;;;;;;;0.20;0.20;;;;;;;22.96;10.94;99324.53;5033555;28;20049;-73
2022/01/16 05:01:06;;;;;;;0.25;0.25;;;;;;;22.94;11.01;99319.38;5033865;28;20028;-74
2022/01/16 05:03:31;;;;;;;0.30;0.30;;;;;;;23.00;10.88;99304.53;5033577;28;20017;-73
2022/01/16 05:05:57;;;;;;;0.22;0.20;;;;;;;22.87;10.83;99297.13;5033625;28;20029;-73
2022/01/16 05:08:22;;;;;;;0.20;0.20;;;;;;;22.82;11.08;99294.50;5033765;28;20034;-73
2022/01/16 05:10:52;;;;;;;0.28;0.28;;;;;;;22.85;10.88;99274.81;5033742;28;20466;-73
2022/01/16 05:18:33;;;;;;;0.20;0.20;;;;;;;22.90;10.79;99266.56;5026956;28;20380;-73
2022/01/16 05:20:59;;;;;;;0.20;0.20;;;;;;;22.86;10.55;99255.44;5033244;28;20022;-73
2022/01/16 05:23:24;;;;;;;0.20;0.20;;;;;;;22.86;10.88;99257.38;5033294;28;20021;-73
2022/01/16 05:25:49;;;;;;;0.22;0.22;;;;;;;22.91;10.75;99260.03;5033567;28;20030;-73
2022/01/16 05:28:15;;;;;;;0.20;0.20;;;;;;;22.87;10.86;99267.19;5033557;28;20030;-73
2022/01/16 05:30:43;;;;;;;0.30;0.30;;;;;;;22.94;10.74;99253.97;5033593;28;20459;-73
2022/01/16 05:33:09;;;;;;;0.35;0.30;;;;;;;22.92;10.70;99258.94;5033445;28;20080;-73
2022/01/16 05:35:34;;;;;;;0.20;0.13;;;;;;;22.90;10.79;99254.88;5033391;28;20419;-73
2022/01/16 05:38:01;;;;;;;0.20;0.20;;;;;;;22.84;10.91;99245.97;5033080;28;20045;-72
2022/01/16 05:40:26;;;;;;;0.30;0.30;;;;;;;22.88;10.92;99241.53;5033406;28;20040;-73
2022/01/16 05:42:52;;;;;;;0.20;0.20;;;;;;;22.90;10.99;99239.31;5033210;28;20025;-73
2022/01/16 05:45:17;;;;;;;0.20;0.20;;;;;;;22.95;10.74;99239.22;5033655;28;20045;-72
2022/01/16 05:47:42;;;;;;;0.30;0.30;;;;;;;22.85;10.91;99242.13;5033401;28;20526;-74
2022/01/16 05:50:08;;;;;;;0.20;0.20;;;;;;;22.96;10.94;99240.06;5033568;28;20048;-73
2022/01/16 05:52:34;;;;;;;0.20;0.20;;;;;;;22.92;10.92;99242.56;5015623;28;20424;-74
2022/01/16 05:54:59;;;;;;;0.20;0.20;;;;;;;22.82;10.87;99237.28;5033305;28;20025;-73
2022/01/16 05:57:24;;;;;;;0.43;0.30;;;;;;;22.85;10.80;99225.78;5032932;28;20428;-74
2022/01/16 05:59:50;;;;;;;0.20;0.20;;;;;;;22.91;10.89;99213.72;5033360;28;20076;-73
2022/01/16 06:02:15;;;;;;;0.22;0.22;;;;;;;22.91;10.93;99202.00;5032870;28;20029;-73
2022/01/16 06:04:41;;;;;;;0.20;0.20;;;;;;;22.89;11.07;99205.03;5033162;28;20022;-73
2022/01/16 06:07:06;;;;;;;0.13;0.13;;;;;;;22.85;11.04;99198.53;5033293;28;20022;-73
2022/01/16 06:09:32;;;;;;;0.30;0.30;;;;;;;22.91;11.01;99193.84;5036951;28;20028;-74
2022/01/16 06:11:57;;;;;;;0.20;0.20;;;;;;;22.83;10.91;99190.66;5036840;28;20032;-73
2022/01/16 06:14:23;;;;;;;0.22;0.22;;;;;;;22.90;10.89;99179.38;5036874;28;20025;-73
2022/01/16 06:16:50;;;;;;;0.25;0.20;;;;;;;22.85;11.15;99179.47;5036844;28;20107;-73
2022/01/16 06:19:15;;;;;;;0.20;0.20;;;;;;;22.93;10.99;99159.72;5036805;28;20026;-73
2022/01/16 06:21:40;;;;;;;0.20;0.20;;;;;;;22.93;11.10;99164.38;5035295;28;20483;-73
2022/01/16 06:24:06;;;;;;;0.20;0.20;;;;;;;22.91;11.13;99142.88;5036695;28;20041;-73
2022/01/16 06:26:31;;;;;;;0.20;0.20;;;;;;;22.87;10.94;99137.22;5036636;28;20076;-73
2022/01/16 06:28:57;;;;;;;0.20;0.20;;;;;;;22.86;11.27;99134.78;5036608;28;20026;-73
2022/01/16 06:31:23;;;;;;;0.20;0.20;;;;;;;22.82;11.37;99126.41;5037299;28;20088;-73
2022/01/16 06:33:48;;;;;;;0.30;0.30;;;;;;;22.91;11.28;99118.34;5036444;28;20411;-73
2022/01/16 06:36:16;;;;;;;0.20;0.20;;;;;;;22.87;11.22;99117.34;5036376;28;20427;-73
2022/01/16 06:38:41;;;;;;;0.20;0.20;;;;;;;22.85;11.46;99116.81;5036325;28;20035;-72
2022/01/16 06:41:07;;;;;;;0.10;0.10;;;;;;;22.94;11.39;99117.78;5036175;28;20025;-73
2022/01/16 06:43:33;;;;;;;0.20;0.20;;;;;;;22.91;11.32;99109.38;5036064;28;20120;-73
2022/01/16 06:45:59;;;;;;;0.40;0.20;;;;;;;22.87;11.53;99103.75;5035955;28;20057;-73
2022/01/16 06:48:24;;;;;;;0.20;0.20;;;;;;;22.85;11.47;99100.47;5034700;28;20026;-73
2022/01/16 06:50:49;;;;;;;0.20;0.20;;;;;;;22.85;11.81;99103.22;5036124;28;20091;-73
2022/01/16 06:53:15;;;;;;;0.20;0.20;;;;;;;22.86;11.44;99093.94;5035843;28;20029;-73
2022/01/16 06:55:40;;;;;;;0.20;0.20;;;;;;;22.88;11.68;99083.53;5035745;28;20033;-73
2022/01/16 06:58:06;;;;;;;0.32;0.20;;;;;;;22.88;11.68;99080.81;5036072;28;20025;-73
2022/01/16 07:00:32;;;;;;;0.30;0.30;;;;;;;22.85;11.64;99084.97;5036068;28;20095;-73
2022/01/16 07:02:57;;;;;;;0.20;0.20;;;;;;;22.92;11.52;99073.69;5035955;28;20045;-73
2022/01/16 07:05:22;;;;;;;0.10;0.10;;;;;;;22.83;11.83;99087.16;5035735;28;20416;-73
2022/01/16 07:07:48;;;;;;;0.20;0.20;;;;;;;22.89;11.69;99079.72;5035911;28;20037;-73
2022/01/16 07:10:13;;;;;;;0.20;0.20;;;;;;;22.91;11.79;99076.69;5035798;28;20026;-73
2022/01/16 07:12:39;;;;;;;0.20;0.20;;;;;;;22.92;11.74;99072.84;5035811;28;20021;-73
2022/01/16 07:15:04;;;;;;;0.20;0.20;;;;;;;22.89;11.67;99063.38;5035642;28;20030;-73
2022/01/16 07:17:30;;;;;;;0.20;0.20;;;;;;;22.89;11.73;99057.94;5036379;28;20316;-73
2022/01/16 07:19:55;;;;;;;0.20;0.20;;;;;;;22.83;11.70;99048.22;5034887;28;20387;-73
2022/01/16 07:22:21;;;;;;;0.20;0.20;;;;;;;22.91;11.88;99039.38;5035531;28;20017;-73
2022/01/16 07:24:48;;;;;;;0.28;0.28;;;;;;;22.83;11.94;99031.88;5035764;28;20030;-73
2022/01/16 07:27:13;;;;;;;0.20;0.20;;;;;;;22.80;12.04;99030.59;5035913;28;20055;-73
2022/01/16 07:29:39;;;;;;;0.20;0.20;;;;;;;22.90;11.87;99021.41;5035810;28;20404;-73
2022/01/16 07:32:06;;;;;;;0.30;0.30;;;;;;;22.87;11.89;99016.56;5036485;28;20037;-73
2022/01/16 07:34:32;;;;;;;0.15;0.15;;;;;;;22.82;11.98;99013.94;5035412;28;20471;-74
2022/01/16 07:36:57;;;;;;;0.20;0.20;;;;;;;22.86;11.95;99006.78;5035409;28;20025;-73
2022/01/16 07:39:23;;;;;;;0.30;0.30;;;;;;;22.78;12.06;99002.03;5036052;28;20383;-73
2022/01/16 07:41:48;;;;;;;0.20;0.20;;;;;;;22.90;11.93;98996.06;5035807;28;20371;-73
2022/01/16 07:44:14;;;;;;;0.22;0.22;;;;;;;22.86;11.90;98987.72;5036068;28;20459;-73
2022/01/16 07:46:39;;;;;;;0.20;0.20;;;;;;;22.80;12.07;98980.75;5034868;28;20053;-73
2022/01/16 07:49:04;;;;;;;0.20;0.20;;;;;;;22.83;12.08;98983.66;5035150;28;20368;-73
2022/01/16 07:51:31;;;;;;;0.25;0.25;;;;;;;22.89;12.12;98981.66;5034790;28;20451;-73
2022/01/16 07:53:57;;;;;;;0.20;0.20;;;;;;;22.88;12.08;98972.66;5035084;28;20024;-73
2022/01/16 07:56:22;;;;;;;0.22;0.22;;;;;;;22.91;12.04;98968.53;5035456;28;20029;-73
2022/01/16 07:58:48;;;;;;;0.20;0.20;;;;;;;22.85;12.08;98967.03;5034869;28;20468;-74
2022/01/16 08:01:13;;;;;;;0.20;0.20;;;;;;;22.80;12.17;98956.22;5034536;28;20467;-73
2022/01/16 08:03:39;;;;;;;0.22;0.22;;;;;;;22.86;12.21;98952.31;5034882;28;20021;-74
2022/01/16 08:06:04;;;;;;;0.20;0.20;;;;;;;22.85;12.29;98953.41;5034531;28;20164;-73
2022/01/16 08:08:29;;;;;;;0.20;0.20;;;;;;;22.82;12.33;98948.59;5034752;28;20108;-73
2022/01/16 08:10:55;;;;;;;0.20;0.20;;;;;;;22.88;12.41;98942.69;5034784;28;20022;-72
2022/01/16 08:13:20;;;;;;;0.32;0.20;;;;;;;22.92;12.33;98948.38;5034415;28;20472;-72
2022/01/16 08:15:46;;;;;;;0.30;0.30;;;;;;;22.82;12.44;98954.03;5034597;28;20037;-73
2022/01/16 08:18:11;;;;;;;0.20;0.20;;;;;;;22.80;12.32;98959.78;5034586;28;20095;-73
2022/01/16 08:20:36;;;;;;;0.20;0.20;;;;;;;22.87;12.49;98956.66;5034539;28;20073;-73
2022/01/16 08:23:02;;;;;;;0.20;0.20;;;;;;;22.89;12.39;98948.97;5034421;28;20100;-73
2022/01/16 08:25:27;;;;;;;0.30;0.28;;;;;;;22.85;12.51;98942.50;5034472;28;20028;-73
2022/01/16 08:27:53;;;;;;;0.43;0.30;;;;;;;22.86;12.68;98933.22;5034464;28;20029;-72
2022/01/16 08:30:18;;;;;;;0.30;0.30;;;;;;;22.89;12.59;98921.72;5034125;28;20349;-72
2022/01/16 08:32:44;;;;;;;0.20;0.20;;;;;;;22.90;12.59;98914.38;5033685;28;20088;-73
2022/01/16 08:35:09;;;;;;;0.20;0.20;;;;;;;22.86;12.61;98906.00;5034337;28;20025;-73
2022/01/16 08:37:35;;;;;;;0.32;0.20;;;;;;;22.89;12.70;98899.94;5034282;28;20034;-73
2022/01/16 08:40:00;;;;;;;0.30;0.22;;;;;;;22.85;12.78;98896.19;5034155;28;20025;-73
2022/01/16 08:42:26;;;;;;;0.20;0.20;;;;;;;22.84;12.67;98886.44;5034152;28;20033;-73
2022/01/16 08:44:51;;;;;;;0.20;0.20;;;;;;;23.00;13.12;98879.53;5034471;28;20445;-73
2022/01/16 08:47:17;;;;;;;0.30;0.30;;;;;;;22.88;12.77;98881.97;5033999;28;20068;-73
2022/01/16 08:49:42;;;;;;;0.28;0.28;;;;;;;22.84;12.96;98881.00;5034053;28;20397;-72
2022/01/16 08:52:07;;;;;;;0.20;0.20;;;;;;;22.95;13.00;98893.25;5034046;28;20475;-72
2022/01/16 08:54:34;;;;;;;0.30;0.30;;;;;;;22.86;13.13;98889.66;5034413;28;20083;-73
2022/01/16 08:57:00;;;;;;;0.40;0.22;;;;;;;22.84;13.20;98900.06;5033692;28;20068;-73
2022/01/16 08:59:25;;;;;;;0.50;0.38;;;;;;;22.86;13.17;98906.78;5033492;28;20472;-73
2022/01/16 09:01:51;;;;;;;0.32;0.32;;;;;;;22.84;13.21;98908.22;5033779;28;20028;-73
2022/01/16 09:04:16;;;;;;;0.45;0.30;;;;;;;22.92;13.20;98883.00;5034034;28;20021;-73
2022/01/16 09:06:42;;;;;;;0.38;0.30;;;;;;;22.91;13.30;98878.66;5033503;28;20480;-73
2022/01/16 09:09:07;;;;;;;0.30;0.20;;;;;;;22.79;13.42;98865.56;5033680;28;20017;-73
2022/01/16 09:11:32;;;;;;;0.20;0.20;;;;;;;22.93;13.41;98859.28;5033595;28;20029;-74
2022/01/16 09:13:58;;;;;;;0.28;0.28;;;;;;;22.87;13.61;98848.50;5033378;28;20468;-73
2022/01/16 09:16:24;;;;;;;0.10;0.10;;;;;;;22.90;13.67;98843.53;5033268;28;20029;-72
2022/01/16 09:18:49;;;;;;;0.40;0.40;;;;;;;22.95;13.62;98838.78;5033198;28;20104;-74
2022/01/16 09:21:16;;;;;;;0.38;0.20;;;;;;;22.92;13.57;98833.13;5033880;28;20035;-74
2022/01/16 09:23:43;;;;;;;0.15;0.15;;;;;;;22.87;13.57;98820.47;5033678;28;20022;-74
2022/01/16 09:26:09;;;;;;;0.60;0.30;;;;;;;22.95;13.87;98800.63;5033594;28;20053;-73
2022/01/16 09:28:34;;;;;;;0.20;0.20;;;;;;;22.80;14.08;98795.53;5033253;28;20091;-72
2022/01/16 09:30:59;;;;;;;0.25;0.25;;;;;;;22.87;13.80;98785.06;5033335;28;20030;-72
2022/01/16 09:33:25;;;;;;;0.20;0.20;;;;;;;22.92;13.97;98779.47;5033465;28;20049;-74
2022/01/16 09:35:50;;;;;;;0.55;0.30;;;;;;;22.86;14.01;98769.81;5033116;28;20463;-72
2022/01/16 09:38:17;;;;;;;0.30;0.30;;;;;;;22.84;14.25;98761.94;5033610;28;20037;-73
2022/01/16 09:40:44;;;;;;;0.30;0.30;;;;;;;22.85;14.09;98758.13;5033398;28;20022;-73
2022/01/16 09:43:09;;;;;;;0.20;0.20;;;;;;;22.85;14.13;98743.69;5017866;28;20104;-72
2022/01/16 09:45:34;;;;;;;0.77;0.28;;;;;;;22.82;14.16;98736.16;5037581;28;20053;-73
2022/01/16 09:48:01;;;;;;;0.30;0.30;;;;;;;22.87;14.28;98733.31;5019379;28;20476;-73
2022/01/16 09:50:26;;;;;;;0.20;0.20;;;;;;;22.86;14.44;98727.03;5037064;28;20444;-73
2022/01/16 09:52:52;;;;;;;0.30;0.30;;;;;;;22.84;14.43;98712.13;5037037;28;20030;-72
2022/01/16 09:55:17;;;;;;;0.20;0.20;;;;;;;22.83;14.39;98700.41;5037416;28;20033;-74
2022/01/16 09:57:43;;;;;;;0.30;0.30;;;;;;;22.84;14.59;98706.69;5036883;28;20083;-73
2022/01/16 10:00:11;;;;;;;0.28;0.28;;;;;;;22.81;14.48;98701.84;5037196;28;20029;-73
2022/01/16 10:02:36;;;;;;;0.40;0.40;;;;;;;22.86;14.65;98696.28;5037126;28;20053;-73
2022/01/16 10:05:02;;;;;;;0.20;0.20;;;;;;;22.88;14.57;98670.31;5036737;28;20055;-73
2022/01/16 10:07:28;;;;;;;0.30;0.30;;;;;;;22.89;14.61;98662.97;5019817;28;20088;-73
2022/01/16 10:10:10;;;;;;;0.20;0.20;;;;;;;22.88;14.58;98661.34;5036950;28;20384;-73
2022/01/16 10:12:40;;;;;;;0.32;0.32;;;;;;;22.84;14.74;98654.94;5037078;28;20039;-72
2022/01/16 10:15:16;;;;;;;0.73;0.30;;;;;;;22.90;14.76;98650.94;5036775;28;20518;-72
2022/01/16 10:17:49;;;;;;;0.30;0.30;;;;;;;22.87;14.82;98635.25;5037222;28;20363;-72
2022/01/16 10:20:18;;;;;;;0.50;0.35;;;;;;;22.86;14.70;98618.09;5036581;28;20029;-73
2022/01/16 10:22:45;;;;;;;0.57;0.30;;;;;;;22.96;14.78;98613.50;5037176;28;20025;-74
2022/01/16 10:25:14;;;;;;;0.40;0.30;;;;;;;22.87;14.82;98608.00;5037057;28;20021;-73
2022/01/16 10:27:41;;;;;;;0.25;0.20;;;;;;;22.80;15.02;98596.75;5036427;28;20456;-73
2022/01/16 10:30:08;;;;;;;0.20;0.20;;;;;;;22.85;14.98;98594.72;5036683;28;20027;-73
2022/01/16 10:32:36;;;;;;;0.20;0.20;;;;;;;22.83;15.04;98596.13;5036413;28;20030;-73
2022/01/16 10:35:24;;;;;;;0.45;0.30;;;;;;;22.89;15.14;98589.44;5036377;28;20531;-72
2022/01/16 10:37:58;;;;;;;0.30;0.30;;;;;;;22.81;15.08;98576.56;5036464;28;20025;-72
2022/01/16 10:40:30;;;;;;;0.28;0.28;;;;;;;22.85;15.30;98561.19;5037435;28;20033;-72
2022/01/16 10:42:58;;;;;;;0.30;0.30;;;;;;;22.87;15.18;98557.06;5036567;28;20053;-74
2022/01/16 10:45:28;;;;;;;0.30;0.30;;;;;;;22.85;15.18;98550.31;5036129;28;20054;-73
2022/01/16 10:47:54;;;;;;;0.40;0.40;;;;;;;22.83;15.36;98549.81;5036333;28;20033;-73
2022/01/16 10:50:21;;;;;;;0.25;0.25;;;;;;;22.86;15.45;98535.59;5036224;28;20021;-73
2022/01/16 10:52:59;;;;;;;0.43;0.30;;;;;;;22.88;15.38;98527.91;5036214;28;20029;-72
2022/01/16 10:55:37;;;;;;;0.70;0.45;;;;;;;22.96;15.16;98523.63;5035306;28;20033;-72
2022/01/16 10:58:07;;;;;;;0.38;0.38;;;;;;;22.84;15.56;98521.47;5036250;28;20061;-72
2022/01/16 11:00:33;;;;;;;0.43;0.32;;;;;;;22.83;15.54;98504.31;5035892;28;20384;-72
2022/01/16 11:03:00;;;;;;;0.22;0.22;;;;;;;22.97;15.47;98492.50;5035821;28;20034;-73
2022/01/16 11:05:28;;;;;;;0.20;0.20;;;;;;;22.87;15.70;98499.06;5018347;28;20483;-73
2022/01/16 11:08:03;;;;;;;0.25;0.25;;;;;;;22.85;15.56;98484.94;5036195;28;20021;-73
2022/01/16 11:10:39;;;;;;;0.30;0.30;;;;;;;22.92;15.69;98473.59;5036064;28;20467;-73
2022/01/16 11:13:14;;;;;;;0.35;0.30;;;;;;;22.84;15.76;98472.47;5035691;28;20040;-73
2022/01/16 11:15:41;;;;;;;0.28;0.28;;;;;;;22.87;15.83;98460.94;5035710;28;20046;-73
2022/01/16 11:18:07;;;;;;;0.20;0.20;;;;;;;22.84;15.74;98467.81;5035726;28;20026;-73
2022/01/16 11:20:37;;;;;;;0.20;0.20;;;;;;;22.88;16.04;98468.78;5035791;28;20079;-73
2022/01/16 11:23:13;;;;;;;0.30;0.30;;;;;;;22.97;15.72;98466.06;5018750;28;20421;-72
2022/01/16 11:25:39;;;;;;;0.30;0.30;;;;;;;22.96;15.81;98464.47;5035721;28;20079;-73
2022/01/16 11:28:13;;;;;;;0.50;0.40;;;;;;;22.91;16.00;98440.13;5035475;28;20060;-73
2022/01/16 11:30:43;;;;;;;0.30;0.30;;;;;;;22.99;16.12;98435.78;5035578;28;20156;-73
2022/01/16 11:33:09;;;;;;;0.57;0.30;;;;;;;22.99;16.08;98436.63;5035576;28;20032;-73
2022/01/16 11:35:38;;;;;;;0.30;0.20;;;;;;;22.95;16.13;98422.00;5035237;28;20033;-72
2022/01/16 11:38:04;;;;;;;0.32;0.32;;;;;;;22.98;16.26;98424.09;5035442;28;20032;-72
2022/01/16 11:40:38;;;;;;;0.28;0.28;;;;;;;22.85;16.50;98409.50;5035230;28;20487;-74
2022/01/16 11:43:23;;;;;;;0.38;0.38;;;;;;;22.95;16.17;98402.94;5035228;28;20017;-73
2022/01/16 11:46:06;;;;;;;0.20;0.20;;;;;;;22.93;16.35;98399.75;5034946;28;20053;-72
2022/01/16 11:49:03;;;;;;;0.22;0.22;;;;;;;22.88;16.57;98380.81;5034975;28;20054;-74
2022/01/16 11:51:39;;;;;;;0.47;0.40;;;;;;;22.96;16.51;98368.34;5035472;28;20057;-73
2022/01/16 11:54:24;;;;;;;0.65;0.40;;;;;;;23.00;16.50;98367.38;5034800;28;20444;-73
2022/01/16 11:56:51;;;;;;;0.50;0.43;;;;;;;22.85;16.78;98355.03;5035149;28;20064;-72
2022/01/16 11:59:26;;;;;;;0.40;0.40;;;;;;;22.91;16.85;98344.78;5034947;28;20083;-73
2022/01/16 12:02:04;;;;;;;0.28;0.28;;;;;;;22.90;16.70;98340.44;5034950;28;20079;-73
2022/01/16 12:04:29;;;;;;;0.68;0.30;;;;;;;22.91;16.89;98319.50;5034571;28;20120;-73
2022/01/16 12:07:07;;;;;;;0.40;0.40;;;;;;;22.89;17.01;98319.81;5034832;28;20053;-73
2022/01/16 12:09:48;;;;;;;0.30;0.30;;;;;;;22.92;16.85;98310.19;5034971;28;20083;-73
2022/01/16 12:12:14;;;;;;;0.30;0.30;;;;;;;23.04;16.88;98308.44;5034789;28;20464;-72
2022/01/16 12:15:06;;;;;;;0.30;0.20;;;;;;;23.01;16.82;98292.72;5035026;28;20028;-73
2022/01/16 12:17:31;;;;;;;0.30;0.30;;;;;;;22.88;16.98;98288.22;5034383;28;20427;-73
2022/01/16 12:20:13;;;;;;;0.50;0.40;;;;;;;22.90;17.09;98269.63;5035024;28;20026;-73
2022/01/16 12:22:46;;;;;;;0.30;0.28;;;;;;;22.84;17.43;98263.56;5034813;28;20025;-73